Time;durP1;ratioP1;P1;durP2;ratioP2;P2;SDS_P1;SDS_P2;PMS_P1;PMS_P2;Temp;Humidity;BMP_temperature;BMP_pressure;BME280_temperature;BME280_humidity;BME280_pressure;Samples;Min_cycle;Max_cycle;Signal;HPM_P1;HPM_P2
2023/07/22 00:00:40;;;;;;;17.67;11.98;;;;;;;;;;5071659;28;21191;-68
2023/07/22 00:03:05;;;;;;;13.60;8.40;;;;;;;;;;5069403;28;20060;-68
2023/07/22 00:05:30;;;;;;;15.07;9.93;;;;;;;;;;5071524;28;20027;-68
2023/07/22 00:07:55;;;;;;;16.65;9.23;;;;;;;;;;5069928;28;20497;-68
2023/07/22 00:10:20;;;;;;;11.50;7.73;;;;;;;;;;5070857;28;20027;-68
2023/07/22 00:12:46;;;;;;;13.33;10.97;;;;;;;;;;5069960;28;20443;-69
2023/07/22 00:15:14;;;;;;;11.60;9.55;;;;;;;;;;5071434;28;20419;-68
2023/07/22 00:17:40;;;;;;;12.15;8.88;;;;;;;;;;5069639;28;20043;-68
2023/07/22 00:20:05;;;;;;;15.70;9.20;;;;;;;;;;5070681;28;20017;-68
2023/07/22 00:22:31;;;;;;;13.13;9.32;;;;;;;;;;5069550;28;20091;-68
2023/07/22 00:24:57;;;;;;;14.70;11.00;;;;;;;;;;5070977;28;20078;-69
2023/07/22 00:27:22;;;;;;;12.30;9.57;;;;;;;;;;5069286;28;20686;-68
2023/07/22 00:29:48;;;;;;;17.67;10.17;;;;;;;;;;5069739;28;20020;-68
2023/07/22 00:32:13;;;;;;;15.30;10.88;;;;;;;;;;5068892;28;20090;-68
2023/07/22 00:34:39;;;;;;;15.60;11.75;;;;;;;;;;5071439;28;20029;-68
2023/07/22 00:37:04;;;;;;;14.88;11.45;;;;;;;;;;5069163;28;20543;-68
2023/07/22 00:39:29;;;;;;;18.52;12.43;;;;;;;;;;5070526;28;20035;-68
2023/07/22 00:41:54;;;;;;;17.73;13.15;;;;;;;;;;5069234;28;20102;-68
2023/07/22 00:44:19;;;;;;;22.43;11.90;;;;;;;;;;5070617;28;20040;-68
2023/07/22 00:46:44;;;;;;;15.98;11.70;;;;;;;;;;5069239;28;20045;-68
2023/07/22 00:49:09;;;;;;;16.67;10.60;;;;;;;;;;5070431;28;20515;-68
2023/07/22 00:51:35;;;;;;;19.95;12.48;;;;;;;;;;5069266;28;20455;-68
2023/07/22 00:54:00;;;;;;;19.17;12.37;;;;;;;;;;5070279;28;20131;-69
2023/07/22 00:56:25;;;;;;;15.90;12.88;;;;;;;;;;5069616;28;20036;-69
2023/07/22 00:58:51;;;;;;;20.55;13.35;;;;;;;;;;5070659;28;20021;-68
2023/07/22 01:01:16;;;;;;;17.15;11.15;;;;;;;;;;5068762;28;20029;-76
2023/07/22 01:03:41;;;;;;;14.85;11.68;;;;;;;;;;5070364;28;20103;-68
2023/07/22 01:06:07;;;;;;;15.80;11.43;;;;;;;;;;5069207;28;20024;-68
2023/07/22 01:08:32;;;;;;;18.67;11.90;;;;;;;;;;5070252;28;20028;-68
2023/07/22 01:10:58;;;;;;;15.47;12.07;;;;;;;;;;5069206;28;20029;-68
2023/07/22 01:13:23;;;;;;;15.70;11.63;;;;;;;;;;5070709;28;20099;-69
2023/07/22 01:15:49;;;;;;;18.30;11.77;;;;;;;;;;5070780;28;20100;-68
2023/07/22 01:18:14;;;;;;;15.70;11.05;;;;;;;;;;5068227;28;20028;-68
2023/07/22 01:20:39;;;;;;;17.63;12.30;;;;;;;;;;5070658;28;20028;-69
2023/07/22 01:23:06;;;;;;;15.23;12.70;;;;;;;;;;5068903;28;20474;-67
2023/07/22 01:25:31;;;;;;;21.25;13.70;;;;;;;;;;5070234;28;20074;-67
2023/07/22 01:27:56;;;;;;;34.60;12.45;;;;;;;;;;5067470;28;20032;-67
2023/07/22 01:30:22;;;;;;;18.63;13.10;;;;;;;;;;5070599;28;20024;-67
2023/07/22 01:32:47;;;;;;;18.03;12.10;;;;;;;;;;5068389;28;20097;-69
2023/07/22 01:35:12;;;;;;;18.05;12.70;;;;;;;;;;5069721;28;21065;-69
2023/07/22 01:37:37;;;;;;;20.08;11.95;;;;;;;;;;5069071;28;20032;-70
2023/07/22 01:40:11;;;;;;;19.80;13.03;;;;;;;;;;5069661;28;20056;-70
2023/07/22 01:42:36;;;;;;;17.98;12.07;;;;;;;;;;5068617;28;20033;-69
2023/07/22 01:45:02;;;;;;;18.52;13.43;;;;;;;;;;5070211;28;20027;-70
2023/07/22 01:47:27;;;;;;;20.53;14.80;;;;;;;;;;5068459;28;20567;-70
2023/07/22 01:49:52;;;;;;;19.42;12.60;;;;;;;;;;5070346;28;20406;-70
2023/07/22 01:52:17;;;;;;;18.58;15.80;;;;;;;;;;5068477;28;20513;-70
2023/07/22 01:54:42;;;;;;;18.90;13.48;;;;;;;;;;5069986;28;20027;-70
2023/07/22 01:57:07;;;;;;;19.07;14.17;;;;;;;;;;5068608;28;20029;-70
2023/07/22 01:59:32;;;;;;;21.83;15.43;;;;;;;;;;5069093;28;20395;-70
2023/07/22 02:01:58;;;;;;;18.23;15.55;;;;;;;;;;5068211;28;20093;-70
2023/07/22 02:04:23;;;;;;;18.65;13.50;;;;;;;;;;5069860;28;20027;-70
2023/07/22 02:06:48;;;;;;;22.15;15.98;;;;;;;;;;5068856;28;20032;-70
2023/07/22 02:09:13;;;;;;;19.70;13.57;;;;;;;;;;5069439;28;20058;-70
2023/07/22 02:11:39;;;;;;;25.17;17.05;;;;;;;;;;5068474;28;20041;-69
2023/07/22 02:14:06;;;;;;;24.80;18.35;;;;;;;;;;5069876;28;20013;-70
2023/07/22 02:16:31;;;;;;;23.67;16.50;;;;;;;;;;5070509;28;20479;-69
2023/07/22 02:18:57;;;;;;;23.83;18.77;;;;;;;;;;5073418;28;20109;-70
2023/07/22 02:21:22;;;;;;;29.60;19.27;;;;;;;;;;5071411;28;20435;-68
2023/07/22 02:23:47;;;;;;;31.50;16.67;;;;;;;;;;5073093;28;20111;-69
2023/07/22 02:26:12;;;;;;;26.30;16.73;;;;;;;;;;5071795;28;20043;-68
2023/07/22 02:28:37;;;;;;;27.63;16.25;;;;;;;;;;5073470;28;20046;-68
2023/07/22 02:31:07;;;;;;;24.48;14.98;;;;;;;;;;5071459;28;20073;-68
2023/07/22 02:33:32;;;;;;;22.30;16.23;;;;;;;;;;5073394;28;20503;-69
2023/07/22 02:35:57;;;;;;;21.42;14.43;;;;;;;;;;5071539;28;20055;-68
2023/07/22 02:38:22;;;;;;;23.60;16.67;;;;;;;;;;5072689;28;20021;-69
2023/07/22 02:40:47;;;;;;;23.97;19.00;;;;;;;;;;5072885;28;20103;-69
2023/07/22 02:43:13;;;;;;;32.00;21.85;;;;;;;;;;5071582;28;20033;-69
2023/07/22 02:45:38;;;;;;;23.50;17.63;;;;;;;;;;5072987;28;20023;-68
2023/07/22 02:48:03;;;;;;;28.53;21.40;;;;;;;;;;5071161;28;20471;-69
2023/07/22 02:50:28;;;;;;;23.60;16.13;;;;;;;;;;5073024;28;20024;-70
2023/07/22 02:52:53;;;;;;;24.73;16.80;;;;;;;;;;5071145;28;20040;-68
2023/07/22 02:55:19;;;;;;;22.90;17.53;;;;;;;;;;5072710;28;20419;-69
2023/07/22 02:57:48;;;;;;;24.63;19.33;;;;;;;;;;5071537;28;20579;-68
2023/07/22 03:00:17;;;;;;;20.67;16.58;;;;;;;;;;5072360;28;20020;-68
2023/07/22 03:02:46;;;;;;;26.48;18.17;;;;;;;;;;5071458;28;20114;-68
2023/07/22 03:05:11;;;;;;;27.58;18.42;;;;;;;;;;5072507;28;20047;-68
2023/07/22 03:07:37;;;;;;;30.83;18.33;;;;;;;;;;5070685;28;20123;-68
2023/07/22 03:10:02;;;;;;;26.90;19.05;;;;;;;;;;5072667;28;20980;-68
2023/07/22 03:12:27;;;;;;;22.20;16.85;;;;;;;;;;5071395;28;20106;-68
2023/07/22 03:14:53;;;;;;;24.77;20.07;;;;;;;;;;5072057;28;20017;-68
2023/07/22 03:17:18;;;;;;;24.40;18.70;;;;;;;;;;5070465;28;20024;-71
2023/07/22 03:19:43;;;;;;;26.95;18.38;;;;;;;;;;5072402;28;20042;-69
2023/07/22 03:22:09;;;;;;;28.67;19.00;;;;;;;;;;5070322;28;20494;-69
2023/07/22 03:24:35;;;;;;;34.33;21.17;;;;;;;;;;5072683;28;20028;-69
2023/07/22 03:27:00;;;;;;;26.17;17.87;;;;;;;;;;5070137;28;20036;-67
2023/07/22 03:29:25;;;;;;;35.90;22.98;;;;;;;;;;5071917;28;20512;-69
2023/07/22 03:31:51;;;;;;;29.20;21.63;;;;;;;;;;5071000;28;20028;-69
2023/07/22 03:34:16;;;;;;;29.50;20.45;;;;;;;;;;5071724;28;20021;-69
2023/07/22 03:36:41;;;;;;;29.08;21.35;;;;;;;;;;5070308;28;20041;-68
2023/07/22 03:39:06;;;;;;;32.17;21.60;;;;;;;;;;5071896;28;20059;-68
2023/07/22 03:41:31;;;;;;;33.27;21.80;;;;;;;;;;5070341;28;20043;-68
2023/07/22 03:43:56;;;;;;;33.55;22.10;;;;;;;;;;5071605;28;20103;-69
2023/07/22 03:46:21;;;;;;;37.97;23.48;;;;;;;;;;5070498;28;20043;-69
2023/07/22 03:48:47;;;;;;;27.70;20.08;;;;;;;;;;5072076;28;20069;-69
2023/07/22 03:51:12;;;;;;;28.30;19.77;;;;;;;;;;5069909;28;20020;-69
2023/07/22 03:53:37;;;;;;;28.43;19.83;;;;;;;;;;5071728;28;20040;-70
2023/07/22 03:56:02;;;;;;;40.15;23.58;;;;;;;;;;5070001;28;20015;-70
2023/07/22 03:58:27;;;;;;;37.43;26.03;;;;;;;;;;5071732;28;20149;-69
2023/07/22 04:00:52;;;;;;;31.03;24.23;;;;;;;;;;5070952;28;20529;-70
2023/07/22 04:03:18;;;;;;;40.37;23.60;;;;;;;;;;5070015;28;20067;-70
2023/07/22 04:05:43;;;;;;;36.77;21.77;;;;;;;;;;5071411;28;20066;-70
2023/07/22 04:08:08;;;;;;;36.30;22.45;;;;;;;;;;5069425;28;20055;-70
2023/07/22 04:10:33;;;;;;;32.83;25.03;;;;;;;;;;5071449;28;20017;-71
2023/07/22 04:12:58;;;;;;;35.13;22.58;;;;;;;;;;5068881;28;20487;-68
2023/07/22 04:15:23;;;;;;;30.48;23.00;;;;;;;;;;5070541;28;20029;-69
2023/07/22 04:17:48;;;;;;;31.95;22.50;;;;;;;;;;5069215;28;20032;-69
2023/07/22 04:20:14;;;;;;;35.10;22.63;;;;;;;;;;5070488;28;20767;-70
2023/07/22 04:22:39;;;;;;;34.70;21.27;;;;;;;;;;5064508;28;20040;-71
2023/07/22 04:25:04;;;;;;;35.47;22.17;;;;;;;;;;5070834;28;20431;-69
2023/07/22 04:27:30;;;;;;;29.40;21.60;;;;;;;;;;5069831;28;20492;-68
2023/07/22 04:29:55;;;;;;;32.73;23.63;;;;;;;;;;5070110;28;20020;-69
2023/07/22 04:32:20;;;;;;;34.67;22.75;;;;;;;;;;5060198;28;20456;-68
2023/07/22 04:34:45;;;;;;;29.10;22.20;;;;;;;;;;5060309;28;20008;-67
2023/07/22 04:37:10;;;;;;;32.78;21.20;;;;;;;;;;5068302;28;20036;-69
2023/07/22 04:39:36;;;;;;;38.55;22.08;;;;;;;;;;5059925;28;20331;-69
2023/07/22 04:42:01;;;;;;;29.13;20.27;;;;;;;;;;5068228;28;20039;-69
2023/07/22 04:44:27;;;;;;;32.38;20.48;;;;;;;;;;5070795;28;20509;-69
2023/07/22 04:46:52;;;;;;;29.07;19.40;;;;;;;;;;5067437;28;20048;-69
2023/07/22 04:49:17;;;;;;;33.92;21.42;;;;;;;;;;5069960;28;21062;-69
2023/07/22 04:51:42;;;;;;;48.75;21.60;;;;;;;;;;5068647;28;20032;-69
2023/07/22 04:54:07;;;;;;;26.97;18.60;;;;;;;;;;5069496;28;20024;-69
2023/07/22 04:56:33;;;;;;;30.60;18.85;;;;;;;;;;5068459;28;20035;-69
2023/07/22 04:58:58;;;;;;;30.80;21.15;;;;;;;;;;5069828;28;20052;-68
2023/07/22 05:01:23;;;;;;;30.37;21.23;;;;;;;;;;5068022;28;20039;-68
2023/07/22 05:03:48;;;;;;;32.78;21.98;;;;;;;;;;5068562;28;20012;-69
2023/07/22 05:06:13;;;;;;;32.50;22.35;;;;;;;;;;5064626;28;20040;-69
2023/07/22 05:08:38;;;;;;;34.97;22.42;;;;;;;;;;5051149;28;20021;-67
2023/07/22 05:11:04;;;;;;;27.00;21.50;;;;;;;;;;5063047;28;20433;-66
2023/07/22 05:13:29;;;;;;;32.00;21.63;;;;;;;;;;5064348;28;20044;-67
2023/07/22 05:15:54;;;;;;;39.77;20.37;;;;;;;;;;5067185;28;20013;-64
2023/07/22 05:18:19;;;;;;;29.23;21.13;;;;;;;;;;5064324;28;20465;-67
2023/07/22 05:20:45;;;;;;;27.43;20.63;;;;;;;;;;5049484;28;20100;-67
2023/07/22 05:23:11;;;;;;;28.85;20.50;;;;;;;;;;5063907;28;20557;-67
2023/07/22 05:25:37;;;;;;;31.08;20.15;;;;;;;;;;5068985;28;20052;-67
2023/07/22 05:28:02;;;;;;;26.00;19.90;;;;;;;;;;5067811;28;20565;-74
2023/07/22 05:30:27;;;;;;;25.45;21.08;;;;;;;;;;5069822;28;20797;-67
2023/07/22 05:32:53;;;;;;;26.63;18.73;;;;;;;;;;5066939;28;20052;-68
2023/07/22 05:35:18;;;;;;;33.90;20.98;;;;;;;;;;5068035;28;21023;-68
2023/07/22 05:37:43;;;;;;;29.23;20.10;;;;;;;;;;5067550;28;20068;-69
2023/07/22 05:40:09;;;;;;;32.08;19.40;;;;;;;;;;5068422;28;20386;-68
2023/07/22 05:42:34;;;;;;;27.70;20.70;;;;;;;;;;5067643;28;20059;-69
2023/07/22 05:45:00;;;;;;;27.83;18.43;;;;;;;;;;5050552;28;20071;-68
2023/07/22 05:47:25;;;;;;;28.47;18.07;;;;;;;;;;5047359;28;21078;-69
2023/07/22 05:49:50;;;;;;;30.95;24.17;;;;;;;;;;5050743;28;21048;-69
2023/07/22 05:52:15;;;;;;;28.43;20.20;;;;;;;;;;5051974;28;20029;-69
2023/07/22 05:54:41;;;;;;;36.83;21.60;;;;;;;;;;5053003;28;20029;-68
2023/07/22 05:57:06;;;;;;;31.33;20.35;;;;;;;;;;5068854;28;20033;-72
2023/07/22 05:59:31;;;;;;;34.97;21.85;;;;;;;;;;5072774;28;20609;-73
2023/07/22 06:01:56;;;;;;;27.95;21.75;;;;;;;;;;5070396;28;20181;-68
2023/07/22 06:04:22;;;;;;;32.80;20.63;;;;;;;;;;5073008;28;20016;-72
2023/07/22 06:06:47;;;;;;;35.50;21.50;;;;;;;;;;5071128;28;20060;-72
2023/07/22 06:09:12;;;;;;;28.88;22.17;;;;;;;;;;5071456;28;20029;-72
2023/07/22 06:11:37;;;;;;;32.07;19.63;;;;;;;;;;5070952;28;20483;-69
2023/07/22 06:14:02;;;;;;;31.90;20.50;;;;;;;;;;5072241;28;20020;-69
2023/07/22 06:16:27;;;;;;;36.20;23.10;;;;;;;;;;5070263;28;20037;-69
2023/07/22 06:18:53;;;;;;;31.37;20.63;;;;;;;;;;5072611;28;20375;-69
2023/07/22 06:21:18;;;;;;;32.75;20.33;;;;;;;;;;5070047;28;20040;-69
2023/07/22 06:23:43;;;;;;;27.55;20.00;;;;;;;;;;5062653;28;20029;-69
2023/07/22 06:26:08;;;;;;;32.53;19.23;;;;;;;;;;5068813;28;20506;-68
2023/07/22 06:28:34;;;;;;;32.80;19.42;;;;;;;;;;5072221;28;20025;-68
2023/07/22 06:30:59;;;;;;;30.48;20.83;;;;;;;;;;5071468;28;20016;-68
2023/07/22 06:33:24;;;;;;;33.17;22.33;;;;;;;;;;5072891;28;20024;-71
2023/07/22 06:35:49;;;;;;;28.57;19.83;;;;;;;;;;5072478;28;20447;-68
2023/07/22 06:38:14;;;;;;;43.40;21.13;;;;;;;;;;5071317;28;20909;-68
2023/07/22 06:40:40;;;;;;;27.58;19.52;;;;;;;;;;5072665;28;20036;-68
2023/07/22 06:43:05;;;;;;;31.40;19.60;;;;;;;;;;5070773;28;20043;-68
2023/07/22 06:45:31;;;;;;;28.48;19.90;;;;;;;;;;5073007;28;20091;-68
2023/07/22 06:47:56;;;;;;;30.38;21.13;;;;;;;;;;5069622;28;20033;-68
2023/07/22 06:50:21;;;;;;;24.90;19.55;;;;;;;;;;5072145;28;20025;-69
2023/07/22 06:52:46;;;;;;;23.37;17.10;;;;;;;;;;5071338;28;20395;-68
2023/07/22 06:55:11;;;;;;;23.95;18.35;;;;;;;;;;5072537;28;20116;-69
2023/07/22 06:57:37;;;;;;;25.88;16.30;;;;;;;;;;5070787;28;20028;-69
2023/07/22 07:00:03;;;;;;;30.50;20.35;;;;;;;;;;5072298;28;20047;-69
2023/07/22 07:02:28;;;;;;;32.67;19.55;;;;;;;;;;5070115;28;20036;-69
2023/07/22 07:04:53;;;;;;;24.48;14.73;;;;;;;;;;5071924;28;20020;-69
2023/07/22 07:07:18;;;;;;;26.67;16.17;;;;;;;;;;5070770;28;20077;-69
2023/07/22 07:09:43;;;;;;;25.33;18.20;;;;;;;;;;5072130;28;20483;-73
2023/07/22 07:12:09;;;;;;;24.77;17.77;;;;;;;;;;5070165;28;20028;-69
2023/07/22 07:14:34;;;;;;;23.63;15.77;;;;;;;;;;5071685;28;21137;-69
2023/07/22 07:17:00;;;;;;;23.37;16.63;;;;;;;;;;5070419;28;20063;-69
2023/07/22 07:19:25;;;;;;;21.40;15.80;;;;;;;;;;5071198;28;20866;-68
2023/07/22 07:21:51;;;;;;;23.25;17.35;;;;;;;;;;5070196;28;20094;-69
2023/07/22 07:24:16;;;;;;;32.45;18.73;;;;;;;;;;5071934;28;20138;-68
2023/07/22 07:26:41;;;;;;;25.20;15.90;;;;;;;;;;5069830;28;20115;-68
2023/07/22 07:29:07;;;;;;;26.63;16.20;;;;;;;;;;5071470;28;20472;-69
2023/07/22 07:31:32;;;;;;;24.10;18.53;;;;;;;;;;5070783;28;20052;-69
2023/07/22 07:33:57;;;;;;;28.97;15.23;;;;;;;;;;5072011;28;20008;-69
2023/07/22 07:36:23;;;;;;;24.65;18.48;;;;;;;;;;5070203;28;20053;-69
2023/07/22 07:38:48;;;;;;;25.67;17.27;;;;;;;;;;5071768;28;20052;-75
2023/07/22 07:41:14;;;;;;;17.57;14.20;;;;;;;;;;5069198;28;20012;-69
2023/07/22 07:43:40;;;;;;;25.73;15.57;;;;;;;;;;5071930;28;20433;-69
2023/07/22 07:46:17;;;;;;;22.30;15.60;;;;;;;;;;5069725;28;20053;-68
2023/07/22 07:48:46;;;;;;;26.13;16.20;;;;;;;;;;5071297;28;20036;-69
2023/07/22 07:51:11;;;;;;;;;;;;;;;;;;5070190;28;20017;-69
2023/07/22 07:53:37;;;;;;;22.65;15.50;;;;;;;;;;5071702;28;19974;-69
2023/07/22 07:56:02;;;;;;;21.52;14.73;;;;;;;;;;5067855;28;20021;-68
2023/07/22 07:58:27;;;;;;;15.80;12.97;;;;;;;;;;5071543;28;20240;-69
2023/07/22 08:00:52;;;;;;;11.63;10.13;;;;;;;;;;5071510;28;20439;-69
2023/07/22 08:03:17;;;;;;;15.60;12.07;;;;;;;;;;5067756;28;20436;-70
2023/07/22 08:05:42;;;;;;;19.23;13.37;;;;;;;;;;5071371;28;20021;-69
2023/07/22 08:08:08;;;;;;;17.42;11.27;;;;;;;;;;5069173;28;20033;-69
2023/07/22 08:10:33;;;;;;;19.87;14.07;;;;;;;;;;5070577;28;20065;-69
2023/07/22 08:12:59;;;;;;;19.13;12.17;;;;;;;;;;5069437;28;20411;-70
2023/07/22 08:15:24;;;;;;;25.50;16.52;;;;;;;;;;5067374;28;20095;-69
2023/07/22 08:17:49;;;;;;;14.93;12.05;;;;;;;;;;5058556;28;20120;-69
2023/07/22 08:20:14;;;;;;;19.23;13.63;;;;;;;;;;5065187;28;20533;-69
2023/07/22 08:22:40;;;;;;;16.47;11.40;;;;;;;;;;5069391;28;20048;-69
2023/07/22 08:25:05;;;;;;;18.57;11.03;;;;;;;;;;5069418;28;20027;-69
2023/07/22 08:27:30;;;;;;;14.57;9.98;;;;;;;;;;5055368;28;20037;-70
2023/07/22 08:29:57;;;;;;;16.60;11.40;;;;;;;;;;5050856;28;20023;-69
2023/07/22 08:32:22;;;;;;;13.32;10.07;;;;;;;;;;5060452;28;20037;-68
2023/07/22 08:34:47;;;;;;;9.93;8.88;;;;;;;;;;5069728;28;20035;-69
2023/07/22 08:37:12;;;;;;;13.20;11.07;;;;;;;;;;5068720;28;20087;-69
2023/07/22 08:39:37;;;;;;;17.70;11.10;;;;;;;;;;5070747;28;20467;-69
2023/07/22 08:42:03;;;;;;;13.73;9.70;;;;;;;;;;5067891;28;20403;-69
2023/07/22 08:44:31;;;;;;;14.93;10.13;;;;;;;;;;5070612;28;20797;-69
2023/07/22 08:46:58;;;;;;;13.50;9.90;;;;;;;;;;5069303;28;20457;-69
2023/07/22 08:49:23;;;;;;;14.90;9.40;;;;;;;;;;5069647;28;20119;-69
2023/07/22 08:51:49;;;;;;;12.43;7.63;;;;;;;;;;5069038;28;20115;-69
2023/07/22 08:54:15;;;;;;;11.63;8.35;;;;;;;;;;5070129;28;20013;-69
2023/07/22 08:56:41;;;;;;;13.03;8.20;;;;;;;;;;5068911;28;20118;-69
2023/07/22 08:59:06;;;;;;;12.00;7.95;;;;;;;;;;5070308;28;20380;-68
2023/07/22 09:01:32;;;;;;;11.23;8.07;;;;;;;;;;5068993;28;20066;-69
2023/07/22 09:03:58;;;;;;;10.10;7.18;;;;;;;;;;5070296;28;20048;-69
2023/07/22 09:06:23;;;;;;;7.55;6.32;;;;;;;;;;5068723;28;20113;-69
2023/07/22 09:08:48;;;;;;;12.18;7.82;;;;;;;;;;5069012;28;20036;-69
2023/07/22 09:11:14;;;;;;;16.48;9.75;;;;;;;;;;5067064;28;20016;-69
2023/07/22 09:13:40;;;;;;;11.00;7.80;;;;;;;;;;5070506;28;20025;-69
2023/07/22 09:16:06;;;;;;;15.50;9.43;;;;;;;;;;5067137;28;20471;-68
2023/07/22 09:18:34;;;;;;;15.73;10.82;;;;;;;;;;5069904;28;20020;-69
2023/07/22 09:20:59;;;;;;;13.18;9.50;;;;;;;;;;5068392;28;20012;-69
2023/07/22 09:23:37;;;;;;;16.83;10.13;;;;;;;;;;5070516;28;20375;-71
2023/07/22 09:26:12;;;;;;;17.55;11.43;;;;;;;;;;5071684;28;20043;-71
2023/07/22 09:28:47;;;;;;;14.10;9.25;;;;;;;;;;5073188;28;20016;-69
2023/07/22 09:31:12;;;;;;;16.45;10.00;;;;;;;;;;5072522;28;20028;-69
2023/07/22 09:33:37;;;;;;;15.40;8.32;;;;;;;;;;5073904;28;20021;-69
2023/07/22 09:36:04;;;;;;;15.63;9.93;;;;;;;;;;5072426;28;20036;-69
2023/07/22 09:38:29;;;;;;;15.55;10.18;;;;;;;;;;5074086;28;20395;-69
2023/07/22 09:40:54;;;;;;;12.10;8.57;;;;;;;;;;5073441;28;20029;-69
2023/07/22 09:43:19;;;;;;;18.03;9.50;;;;;;;;;;5072459;28;20088;-70
2023/07/22 09:45:46;;;;;;;14.27;9.43;;;;;;;;;;5074005;28;20375;-69
2023/07/22 09:48:11;;;;;;;18.02;10.52;;;;;;;;;;5068863;28;20488;-68
2023/07/22 09:50:37;;;;;;;19.05;10.82;;;;;;;;;;5072797;28;20020;-69
2023/07/22 09:53:03;;;;;;;21.73;11.57;;;;;;;;;;5071852;28;20028;-69
2023/07/22 09:55:29;;;;;;;11.50;9.30;;;;;;;;;;5053931;28;20071;-69
2023/07/22 09:57:58;;;;;;;19.42;10.73;;;;;;;;;;5070562;28;20044;-69
2023/07/22 10:00:25;;;;;;;13.30;9.20;;;;;;;;;;5073222;28;20399;-68
2023/07/22 10:02:51;;;;;;;15.60;10.40;;;;;;;;;;5071577;28;20116;-69
2023/07/22 10:05:17;;;;;;;18.48;9.60;;;;;;;;;;5072215;28;20513;-71
2023/07/22 10:07:44;;;;;;;15.05;9.40;;;;;;;;;;5071803;28;20037;-68
2023/07/22 10:10:16;;;;;;;17.30;10.88;;;;;;;;;;5072430;28;20040;-70
2023/07/22 10:12:42;;;;;;;12.70;8.65;;;;;;;;;;5072355;28;20040;-69
2023/07/22 10:15:08;;;;;;;12.48;7.68;;;;;;;;;;5070057;28;20012;-68
2023/07/22 10:17:34;;;;;;;9.55;7.70;;;;;;;;;;5071904;28;20039;-69
2023/07/22 10:19:59;;;;;;;12.23;10.23;;;;;;;;;;5069410;28;20021;-69
2023/07/22 10:22:24;;;;;;;11.37;8.97;;;;;;;;;;5070783;28;20043;-69
2023/07/22 10:24:50;;;;;;;10.15;8.82;;;;;;;;;;5065169;28;20443;-67
2023/07/22 10:27:16;;;;;;;14.98;10.05;;;;;;;;;;5061840;28;20056;-70
2023/07/22 10:29:41;;;;;;;14.32;9.38;;;;;;;;;;5073236;28;20020;-69
2023/07/22 10:32:07;;;;;;;10.70;8.60;;;;;;;;;;5071205;28;20044;-68
2023/07/22 10:34:32;;;;;;;11.63;8.27;;;;;;;;;;5073299;28;20052;-69
2023/07/22 10:36:58;;;;;;;11.73;7.65;;;;;;;;;;5070332;28;20110;-68
2023/07/22 10:39:27;;;;;;;14.02;7.95;;;;;;;;;;5062545;28;20040;-70
2023/07/22 10:42:05;;;;;;;10.63;7.18;;;;;;;;;;5051564;28;20241;-68
2023/07/22 10:44:31;;;;;;;16.10;8.45;;;;;;;;;;5053482;28;20021;-68
2023/07/22 10:46:57;;;;;;;12.07;6.57;;;;;;;;;;5051348;28;20091;-68
2023/07/22 10:49:22;;;;;;;10.95;6.25;;;;;;;;;;5052783;28;20033;-69
2023/07/22 10:51:49;;;;;;;12.52;6.70;;;;;;;;;;5051652;28;20087;-69
2023/07/22 10:54:15;;;;;;;9.48;5.20;;;;;;;;;;5052486;28;20021;-68
2023/07/22 10:56:44;;;;;;;8.80;5.47;;;;;;;;;;5051476;28;20426;-69
2023/07/22 10:59:10;;;;;;;9.93;5.50;;;;;;;;;;5052828;28;20040;-68
2023/07/22 11:01:38;;;;;;;7.43;5.53;;;;;;;;;;5051081;28;20090;-69
2023/07/22 11:04:03;;;;;;;16.98;6.28;;;;;;;;;;5052694;28;20178;-70
2023/07/22 11:06:28;;;;;;;12.50;7.80;;;;;;;;;;5051427;28;20195;-68
2023/07/22 11:08:55;;;;;;;8.55;5.32;;;;;;;;;;5052125;28;20083;-68
2023/07/22 11:11:20;;;;;;;7.35;6.15;;;;;;;;;;5050949;28;20061;-68
2023/07/22 11:13:46;;;;;;;8.70;4.53;;;;;;;;;;5052652;28;20104;-69
2023/07/22 11:16:11;;;;;;;10.38;5.47;;;;;;;;;;5050179;28;20489;-69
2023/07/22 11:18:37;;;;;;;13.32;5.30;;;;;;;;;;5052721;28;20028;-70
2023/07/22 11:21:06;;;;;;;8.38;4.82;;;;;;;;;;5050576;28;20021;-69
2023/07/22 11:23:33;;;;;;;8.35;5.05;;;;;;;;;;5051985;28;20013;-70
2023/07/22 11:25:58;;;;;;;7.35;5.57;;;;;;;;;;5050935;28;20476;-69
2023/07/22 11:28:23;;;;;;;7.70;3.90;;;;;;;;;;5052183;28;20059;-69
2023/07/22 11:30:48;;;;;;;9.07;5.40;;;;;;;;;;5051855;28;20108;-69
2023/07/22 11:33:13;;;;;;;7.93;5.40;;;;;;;;;;5050254;28;20526;-71
2023/07/22 11:35:42;;;;;;;9.88;5.05;;;;;;;;;;5052049;28;20041;-69
2023/07/22 11:38:07;;;;;;;6.07;4.57;;;;;;;;;;5049944;28;20063;-69
2023/07/22 11:40:33;;;;;;;8.00;4.53;;;;;;;;;;5052059;28;20021;-70
2023/07/22 11:42:58;;;;;;;8.20;4.35;;;;;;;;;;5050521;28;20040;-70
2023/07/22 11:45:23;;;;;;;7.83;4.83;;;;;;;;;;5051363;28;20021;-69
2023/07/22 11:47:48;;;;;;;4.60;3.42;;;;;;;;;;5048581;28;20440;-69
2023/07/22 11:50:14;;;;;;;5.63;4.27;;;;;;;;;;5051635;28;20021;-70
2023/07/22 11:52:39;;;;;;;6.68;4.35;;;;;;;;;;5049873;28;20056;-69
2023/07/22 11:55:04;;;;;;;5.72;3.78;;;;;;;;;;5051377;28;20419;-68
2023/07/22 11:57:30;;;;;;;4.72;4.28;;;;;;;;;;5050284;28;20538;-69
2023/07/22 11:59:57;;;;;;;7.10;4.33;;;;;;;;;;5051187;28;20017;-69
2023/07/22 12:02:23;;;;;;;6.90;5.38;;;;;;;;;;5049667;28;20037;-69
2023/07/22 12:04:53;;;;;;;10.45;6.10;;;;;;;;;;5051423;28;20029;-70
2023/07/22 12:07:26;;;;;;;7.78;4.82;;;;;;;;;;5049469;28;20120;-70
2023/07/22 12:09:54;;;;;;;10.25;5.03;;;;;;;;;;5051423;28;20013;-69
2023/07/22 12:12:19;;;;;;;11.25;5.47;;;;;;;;;;5049187;28;20032;-70
2023/07/22 12:14:44;;;;;;;10.00;4.55;;;;;;;;;;5050789;28;20017;-70
2023/07/22 12:17:09;;;;;;;10.27;5.40;;;;;;;;;;5049641;28;20519;-70
2023/07/22 12:19:35;;;;;;;9.13;6.03;;;;;;;;;;5051278;28;20906;-70
2023/07/22 12:22:00;;;;;;;9.07;5.10;;;;;;;;;;5049852;28;20459;-69
2023/07/22 12:24:26;;;;;;;8.77;6.20;;;;;;;;;;5049905;28;20396;-69
2023/07/22 12:26:51;;;;;;;8.15;5.85;;;;;;;;;;5052835;28;20141;-69
2023/07/22 12:29:17;;;;;;;9.07;6.18;;;;;;;;;;5070348;28;20026;-69
2023/07/22 12:31:42;;;;;;;7.93;5.83;;;;;;;;;;5067781;28;20033;-69
2023/07/22 12:34:07;;;;;;;11.27;7.17;;;;;;;;;;5069079;28;20467;-68
2023/07/22 12:36:32;;;;;;;6.47;5.80;;;;;;;;;;5068921;28;20041;-69
2023/07/22 12:38:57;;;;;;;7.33;6.00;;;;;;;;;;5069280;28;20060;-69
2023/07/22 12:41:22;;;;;;;7.03;5.07;;;;;;;;;;5068010;28;20463;-69
2023/07/22 12:43:49;;;;;;;7.82;5.53;;;;;;;;;;5071016;28;20476;-70
2023/07/22 12:46:14;;;;;;;10.90;5.35;;;;;;;;;;5069070;28;20029;-69
2023/07/22 12:48:39;;;;;;;9.50;5.90;;;;;;;;;;5070989;28;20062;-72
2023/07/22 12:51:04;;;;;;;8.32;4.63;;;;;;;;;;5068981;28;20367;-69
2023/07/22 12:53:29;;;;;;;9.83;5.70;;;;;;;;;;5070532;28;20020;-68
2023/07/22 12:55:54;;;;;;;8.10;4.70;;;;;;;;;;5070657;28;20480;-68
2023/07/22 12:58:20;;;;;;;17.60;4.97;;;;;;;;;;5069193;28;20040;-69
2023/07/22 13:00:45;;;;;;;8.15;4.82;;;;;;;;;;5069812;28;20379;-69
2023/07/22 13:03:10;;;;;;;15.70;6.67;;;;;;;;;;5069128;28;20487;-71
2023/07/22 13:05:36;;;;;;;7.35;5.20;;;;;;;;;;5070544;28;20023;-68
2023/07/22 13:08:01;;;;;;;8.27;5.33;;;;;;;;;;5068104;28;20039;-71
2023/07/22 13:10:28;;;;;;;6.53;4.83;;;;;;;;;;5070982;28;20431;-70
2023/07/22 13:12:53;;;;;;;8.80;5.07;;;;;;;;;;5068455;28;20493;-70
2023/07/22 13:15:18;;;;;;;9.68;5.28;;;;;;;;;;5069936;28;20009;-71
2023/07/22 13:17:44;;;;;;;9.10;5.75;;;;;;;;;;5069250;28;20040;-71
2023/07/22 13:20:11;;;;;;;12.33;5.73;;;;;;;;;;5070212;28;20048;-71
2023/07/22 13:22:36;;;;;;;5.87;4.73;;;;;;;;;;5068709;28;20479;-73
2023/07/22 13:25:02;;;;;;;12.30;7.50;;;;;;;;;;5070411;28;20047;-71
2023/07/22 13:27:27;;;;;;;6.22;5.10;;;;;;;;;;5069120;28;20451;-71
2023/07/22 13:29:53;;;;;;;10.45;5.85;;;;;;;;;;5070090;28;20024;-71
2023/07/22 13:32:18;;;;;;;8.47;4.70;;;;;;;;;;5068991;28;20032;-73
2023/07/22 13:34:43;;;;;;;5.60;3.93;;;;;;;;;;5070439;28;20464;-70
2023/07/22 13:37:08;;;;;;;10.60;4.27;;;;;;;;;;5068290;28;20538;-71
2023/07/22 13:39:33;;;;;;;4.30;3.87;;;;;;;;;;5069119;28;20020;-71
2023/07/22 13:41:59;;;;;;;6.70;4.73;;;;;;;;;;5068776;28;20039;-71
2023/07/22 13:44:24;;;;;;;4.90;3.33;;;;;;;;;;5069000;28;20028;-71
2023/07/22 13:46:49;;;;;;;8.05;4.30;;;;;;;;;;5068887;28;20049;-71
2023/07/22 13:49:15;;;;;;;13.33;4.33;;;;;;;;;;5068784;28;20024;-70
2023/07/22 13:51:40;;;;;;;3.00;2.67;;;;;;;;;;5068610;28;20134;-70
2023/07/22 13:54:06;;;;;;;5.55;3.70;;;;;;;;;;5069902;28;20499;-70
2023/07/22 13:56:31;;;;;;;4.13;3.00;;;;;;;;;;5068700;28;20036;-70
2023/07/22 13:58:58;;;;;;;10.53;3.37;;;;;;;;;;5069042;28;20021;-70
2023/07/22 14:01:23;;;;;;;16.20;4.35;;;;;;;;;;5068186;28;20037;-70
2023/07/22 14:03:48;;;;;;;5.60;3.63;;;;;;;;;;5070261;28;20087;-70
2023/07/22 14:06:13;;;;;;;6.05;3.80;;;;;;;;;;5068188;28;20447;-71
2023/07/22 14:08:39;;;;;;;11.48;4.53;;;;;;;;;;5070062;28;20028;-70
2023/07/22 14:11:04;;;;;;;8.35;4.55;;;;;;;;;;5070049;28;20036;-70
2023/07/22 14:13:29;;;;;;;7.90;5.10;;;;;;;;;;5072064;28;20344;-70